Terminal Aerodrome Forecast
Issued by NWS

Current Version | Previous Version | Graphics & Text | Print | Product List | Glossary On
Versions: 1 2 3 4 5 6 7 8 9 10 11 12 13 14 15 16 17 18 19
000
FTUS41 KILN 222320
TAFLCK
TAF
KLCK 222320Z 2300/2324 29007KT P6SM SCT080 BKN200
     FM230200 22005KT P6SM BKN150
     FM230600 22007KT 5SM BR SCT010 BKN150
     FM231300 26007KT P6SM BKN040
     FM232200 29008KT P6SM SCT060=

USA.gov is the U.S. government's official web portal to all federal, state and local government web resources and services.